sensor_id;sensor_type;location;lat;lon;timestamp;pressure;altitude;pressure_sealevel;temperature;humidity
9225;BME280;4647;48.072;11.616;2023-02-08T00:01:26;97039.41;;;-7.77;72.05
9225;BME280;4647;48.072;11.616;2023-02-08T00:03:54;97037.13;;;-7.95;73.00
9225;BME280;4647;48.072;11.616;2023-02-08T00:06:25;97038.94;;;-7.96;73.19
9225;BME280;4647;48.072;11.616;2023-02-08T00:08:54;97035.91;;;-8.10;73.19
9225;BME280;4647;48.072;11.616;2023-02-08T00:11:22;97038.69;;;-7.94;72.43
9225;BME280;4647;48.072;11.616;2023-02-08T00:13:51;97028.91;;;-7.72;71.65
9225;BME280;4647;48.072;11.616;2023-02-08T00:16:19;97040.81;;;-7.64;71.19
9225;BME280;4647;48.072;11.616;2023-02-08T00:18:47;97040.16;;;-7.50;70.92
9225;BME280;4647;48.072;11.616;2023-02-08T00:21:17;97037.25;;;-7.53;70.95
9225;BME280;4647;48.072;11.616;2023-02-08T00:23:48;97032.16;;;-7.60;71.18
9225;BME280;4647;48.072;11.616;2023-02-08T00:26:16;97032.63;;;-7.68;71.18
9225;BME280;4647;48.072;11.616;2023-02-08T00:28:45;97036.78;;;-7.77;71.64
9225;BME280;4647;48.072;11.616;2023-02-08T00:31:13;97021.13;;;-7.89;72.25
9225;BME280;4647;48.072;11.616;2023-02-08T00:33:42;97022.63;;;-7.98;72.78
9225;BME280;4647;48.072;11.616;2023-02-08T00:36:10;97014.13;;;-8.05;73.14
9225;BME280;4647;48.072;11.616;2023-02-08T00:38:39;97015.31;;;-8.18;73.95
9225;BME280;4647;48.072;11.616;2023-02-08T00:41:10;97014.53;;;-8.18;74.23
9225;BME280;4647;48.072;11.616;2023-02-08T00:43:39;97007.00;;;-8.10;74.32
9225;BME280;4647;48.072;11.616;2023-02-08T00:46:08;97006.44;;;-8.12;73.99
9225;BME280;4647;48.072;11.616;2023-02-08T00:48:36;97015.66;;;-8.09;73.98
9225;BME280;4647;48.072;11.616;2023-02-08T00:51:06;97010.63;;;-8.16;74.26
9225;BME280;4647;48.072;11.616;2023-02-08T00:53:39;97007.94;;;-8.21;74.77
9225;BME280;4647;48.072;11.616;2023-02-08T00:56:11;97014.78;;;-8.20;74.94
9225;BME280;4647;48.072;11.616;2023-02-08T00:58:40;97009.53;;;-8.20;74.74
9225;BME280;4647;48.072;11.616;2023-02-08T01:01:09;97016.91;;;-8.17;74.99
9225;BME280;4647;48.072;11.616;2023-02-08T01:03:39;97015.63;;;-8.14;74.58
9225;BME280;4647;48.072;11.616;2023-02-08T01:06:10;97008.28;;;-8.12;74.91
9225;BME280;4647;48.072;11.616;2023-02-08T01:08:39;97007.75;;;-8.14;74.85
9225;BME280;4647;48.072;11.616;2023-02-08T01:11:12;97010.94;;;-8.07;74.51
9225;BME280;4647;48.072;11.616;2023-02-08T01:13:42;97005.09;;;-8.14;74.74
9225;BME280;4647;48.072;11.616;2023-02-08T01:16:12;97006.78;;;-8.30;75.38
9225;BME280;4647;48.072;11.616;2023-02-08T01:18:43;96997.53;;;-8.38;75.41
9225;BME280;4647;48.072;11.616;2023-02-08T01:21:13;97007.94;;;-8.48;75.53
9225;BME280;4647;48.072;11.616;2023-02-08T01:23:42;97002.50;;;-8.63;76.54
9225;BME280;4647;48.072;11.616;2023-02-08T01:26:15;97002.41;;;-8.73;77.08
9225;BME280;4647;48.072;11.616;2023-02-08T01:28:45;97008.44;;;-8.73;77.11
9225;BME280;4647;48.072;11.616;2023-02-08T01:31:15;97006.91;;;-8.69;77.08
9225;BME280;4647;48.072;11.616;2023-02-08T01:33:44;96996.47;;;-8.63;77.40
9225;BME280;4647;48.072;11.616;2023-02-08T01:36:12;96995.31;;;-8.51;77.26
9225;BME280;4647;48.072;11.616;2023-02-08T01:38:41;96997.47;;;-8.43;77.48
9225;BME280;4647;48.072;11.616;2023-02-08T01:41:16;96998.78;;;-8.45;77.06
9225;BME280;4647;48.072;11.616;2023-02-08T01:44:03;97000.38;;;-8.44;76.63
9225;BME280;4647;48.072;11.616;2023-02-08T01:46:32;96994.94;;;-8.32;76.24
9225;BME280;4647;48.072;11.616;2023-02-08T01:49:05;96994.91;;;-8.38;76.50
9225;BME280;4647;48.072;11.616;2023-02-08T01:51:38;97000.91;;;-8.42;76.89
9225;BME280;4647;48.072;11.616;2023-02-08T01:54:09;97002.75;;;-8.43;76.67
9225;BME280;4647;48.072;11.616;2023-02-08T01:56:43;96996.69;;;-8.43;76.60
9225;BME280;4647;48.072;11.616;2023-02-08T01:59:22;96997.06;;;-8.78;77.94
9225;BME280;4647;48.072;11.616;2023-02-08T02:01:53;96998.59;;;-8.82;78.40
9225;BME280;4647;48.072;11.616;2023-02-08T02:04:24;96991.75;;;-8.83;78.94
9225;BME280;4647;48.072;11.616;2023-02-08T02:06:56;96987.97;;;-8.71;78.85
9225;BME280;4647;48.072;11.616;2023-02-08T02:09:32;96983.56;;;-8.65;78.35
9225;BME280;4647;48.072;11.616;2023-02-08T02:12:07;96988.13;;;-8.55;78.00
9225;BME280;4647;48.072;11.616;2023-02-08T02:14:37;96981.75;;;-8.64;77.34
9225;BME280;4647;48.072;11.616;2023-02-08T02:17:06;96983.63;;;-8.82;77.78
9225;BME280;4647;48.072;11.616;2023-02-08T02:19:39;96981.22;;;-9.05;78.90
9225;BME280;4647;48.072;11.616;2023-02-08T02:22:27;96982.44;;;-9.13;79.16
9225;BME280;4647;48.072;11.616;2023-02-08T02:25:20;96981.34;;;-9.17;79.36
9225;BME280;4647;48.072;11.616;2023-02-08T02:28:08;96982.47;;;-9.30;79.92
9225;BME280;4647;48.072;11.616;2023-02-08T02:30:59;96979.31;;;-9.32;80.24
9225;BME280;4647;48.072;11.616;2023-02-08T02:33:55;96977.66;;;-9.38;80.25
9225;BME280;4647;48.072;11.616;2023-02-08T02:36:34;96968.63;;;-9.25;80.48
9225;BME280;4647;48.072;11.616;2023-02-08T02:39:14;96967.84;;;-9.04;79.90
9225;BME280;4647;48.072;11.616;2023-02-08T02:41:53;96971.22;;;-9.08;80.01
9225;BME280;4647;48.072;11.616;2023-02-08T02:44:42;96976.19;;;-8.90;79.50
9225;BME280;4647;48.072;11.616;2023-02-08T02:47:18;96974.63;;;-9.08;79.90
9225;BME280;4647;48.072;11.616;2023-02-08T02:49:55;96975.44;;;-9.07;80.17
9225;BME280;4647;48.072;11.616;2023-02-08T02:52:31;96986.38;;;-8.93;80.30
9225;BME280;4647;48.072;11.616;2023-02-08T02:55:04;96979.84;;;-8.91;79.74
9225;BME280;4647;48.072;11.616;2023-02-08T02:57:35;96977.16;;;-8.96;79.71
9225;BME280;4647;48.072;11.616;2023-02-08T03:00:07;96974.88;;;-9.09;80.40
9225;BME280;4647;48.072;11.616;2023-02-08T03:02:36;96986.53;;;-9.00;80.29
9225;BME280;4647;48.072;11.616;2023-02-08T03:05:10;96987.03;;;-8.81;79.76
9225;BME280;4647;48.072;11.616;2023-02-08T03:07:50;96981.53;;;-8.80;79.39
9225;BME280;4647;48.072;11.616;2023-02-08T03:10:33;96980.16;;;-8.87;79.64
9225;BME280;4647;48.072;11.616;2023-02-08T03:13:17;96986.31;;;-8.99;79.90
9225;BME280;4647;48.072;11.616;2023-02-08T03:16:00;96990.75;;;-8.99;79.87
9225;BME280;4647;48.072;11.616;2023-02-08T03:18:35;96977.41;;;-8.98;79.72
9225;BME280;4647;48.072;11.616;2023-02-08T03:21:11;96986.19;;;-8.87;79.54
9225;BME280;4647;48.072;11.616;2023-02-08T03:23:48;96980.34;;;-8.94;79.98
9225;BME280;4647;48.072;11.616;2023-02-08T03:26:30;96988.09;;;-8.82;79.59
9225;BME280;4647;48.072;11.616;2023-02-08T03:29:07;96982.34;;;-8.79;79.03
9225;BME280;4647;48.072;11.616;2023-02-08T03:31:41;96976.25;;;-8.85;78.93
9225;BME280;4647;48.072;11.616;2023-02-08T03:34:16;96975.09;;;-8.94;79.26
9225;BME280;4647;48.072;11.616;2023-02-08T03:36:52;96971.53;;;-8.83;79.24
9225;BME280;4647;48.072;11.616;2023-02-08T03:39:25;96976.72;;;-8.66;78.66
9225;BME280;4647;48.072;11.616;2023-02-08T03:41:58;96969.59;;;-8.71;78.68
9225;BME280;4647;48.072;11.616;2023-02-08T03:44:31;96977.88;;;-8.79;78.80
9225;BME280;4647;48.072;11.616;2023-02-08T03:47:04;96975.81;;;-8.77;78.57
9225;BME280;4647;48.072;11.616;2023-02-08T03:49:38;96979.00;;;-8.75;78.27
9225;BME280;4647;48.072;11.616;2023-02-08T03:52:11;96970.78;;;-8.78;78.30
9225;BME280;4647;48.072;11.616;2023-02-08T03:54:42;96970.09;;;-8.74;78.29
9225;BME280;4647;48.072;11.616;2023-02-08T03:57:18;96973.81;;;-8.70;78.21
9225;BME280;4647;48.072;11.616;2023-02-08T03:59:52;96965.97;;;-8.64;78.30
9225;BME280;4647;48.072;11.616;2023-02-08T04:02:25;96970.25;;;-8.58;78.22
9225;BME280;4647;48.072;11.616;2023-02-08T04:04:55;96968.31;;;-8.68;78.24
9225;BME280;4647;48.072;11.616;2023-02-08T04:07:27;96963.25;;;-8.75;78.51
9225;BME280;4647;48.072;11.616;2023-02-08T04:09:56;96962.50;;;-8.92;78.81
9225;BME280;4647;48.072;11.616;2023-02-08T04:12:25;96964.59;;;-8.94;79.37
9225;BME280;4647;48.072;11.616;2023-02-08T04:14:53;96951.94;;;-8.97;79.15
9225;BME280;4647;48.072;11.616;2023-02-08T04:17:22;96949.38;;;-8.92;78.89
9225;BME280;4647;48.072;11.616;2023-02-08T04:19:50;96956.16;;;-8.96;78.78
9225;BME280;4647;48.072;11.616;2023-02-08T04:22:19;96962.59;;;-9.04;78.82
9225;BME280;4647;48.072;11.616;2023-02-08T04:24:50;96950.28;;;-9.03;78.82
9225;BME280;4647;48.072;11.616;2023-02-08T04:27:18;96945.09;;;-9.20;79.69
9225;BME280;4647;48.072;11.616;2023-02-08T04:29:47;96936.00;;;-9.12;79.33
9225;BME280;4647;48.072;11.616;2023-02-08T04:32:15;96939.41;;;-9.12;79.60
9225;BME280;4647;48.072;11.616;2023-02-08T04:34:44;96935.88;;;-9.22;80.11
9225;BME280;4647;48.072;11.616;2023-02-08T04:37:12;96946.75;;;-9.14;80.45
9225;BME280;4647;48.072;11.616;2023-02-08T04:39:41;96938.94;;;-9.09;80.41
9225;BME280;4647;48.072;11.616;2023-02-08T04:42:12;96943.44;;;-9.04;80.27
9225;BME280;4647;48.072;11.616;2023-02-08T04:44:40;96947.78;;;-9.15;80.39
9225;BME280;4647;48.072;11.616;2023-02-08T04:47:09;96946.50;;;-9.12;80.48
9225;BME280;4647;48.072;11.616;2023-02-08T04:49:37;96945.16;;;-9.15;80.62
9225;BME280;4647;48.072;11.616;2023-02-08T04:52:06;96941.94;;;-9.22;80.40
9225;BME280;4647;48.072;11.616;2023-02-08T04:54:34;96942.22;;;-9.18;79.97
9225;BME280;4647;48.072;11.616;2023-02-08T04:57:03;96944.66;;;-9.12;80.04
9225;BME280;4647;48.072;11.616;2023-02-08T04:59:34;96939.91;;;-9.15;80.24
9225;BME280;4647;48.072;11.616;2023-02-08T05:02:02;96940.94;;;-9.16;80.89
9225;BME280;4647;48.072;11.616;2023-02-08T05:04:31;96939.13;;;-9.15;80.73
9225;BME280;4647;48.072;11.616;2023-02-08T05:07:00;96936.59;;;-9.05;80.96
9225;BME280;4647;48.072;11.616;2023-02-08T05:09:28;96923.31;;;-8.99;80.42
9225;BME280;4647;48.072;11.616;2023-02-08T05:11:57;96921.69;;;-9.00;80.48
9225;BME280;4647;48.072;11.616;2023-02-08T05:14:25;96922.31;;;-9.14;81.16
9225;BME280;4647;48.072;11.616;2023-02-08T05:16:56;96928.63;;;-9.15;81.19
9225;BME280;4647;48.072;11.616;2023-02-08T05:19:25;96925.53;;;-9.29;81.16
9225;BME280;4647;48.072;11.616;2023-02-08T05:21:54;96931.94;;;-9.42;81.66
9225;BME280;4647;48.072;11.616;2023-02-08T05:24:22;96930.25;;;-9.31;81.83
9225;BME280;4647;48.072;11.616;2023-02-08T05:26:50;96924.19;;;-9.32;81.65
9225;BME280;4647;48.072;11.616;2023-02-08T05:29:19;96918.66;;;-9.13;81.09
9225;BME280;4647;48.072;11.616;2023-02-08T05:31:47;96923.13;;;-9.14;81.21
9225;BME280;4647;48.072;11.616;2023-02-08T05:34:18;96918.22;;;-9.05;80.86
9225;BME280;4647;48.072;11.616;2023-02-08T05:36:47;96926.00;;;-9.15;81.24
9225;BME280;4647;48.072;11.616;2023-02-08T05:39:15;96925.50;;;-9.12;81.28
9225;BME280;4647;48.072;11.616;2023-02-08T05:41:44;96917.25;;;-9.21;81.41
9225;BME280;4647;48.072;11.616;2023-02-08T05:44:12;96925.25;;;-9.11;81.21
9225;BME280;4647;48.072;11.616;2023-02-08T05:46:40;96921.34;;;-9.08;81.14
9225;BME280;4647;48.072;11.616;2023-02-08T05:49:09;96920.59;;;-9.25;81.46
9225;BME280;4647;48.072;11.616;2023-02-08T05:51:40;96917.50;;;-9.22;82.39
9225;BME280;4647;48.072;11.616;2023-02-08T05:54:09;96925.00;;;-9.09;81.87
9225;BME280;4647;48.072;11.616;2023-02-08T05:56:37;96930.75;;;-9.12;81.94
9225;BME280;4647;48.072;11.616;2023-02-08T05:59:06;96923.53;;;-9.00;81.71
9225;BME280;4647;48.072;11.616;2023-02-08T06:01:36;96934.16;;;-8.90;81.31
9225;BME280;4647;48.072;11.616;2023-02-08T06:04:05;96930.44;;;-8.94;81.44
9225;BME280;4647;48.072;11.616;2023-02-08T06:06:33;96935.75;;;-8.89;81.12
9225;BME280;4647;48.072;11.616;2023-02-08T06:09:04;96921.47;;;-8.98;81.31
9225;BME280;4647;48.072;11.616;2023-02-08T06:11:33;96929.66;;;-8.94;81.36
9225;BME280;4647;48.072;11.616;2023-02-08T06:14:02;96932.09;;;-8.88;81.25
9225;BME280;4647;48.072;11.616;2023-02-08T06:16:30;96930.59;;;-8.79;81.14
9225;BME280;4647;48.072;11.616;2023-02-08T06:18:59;96934.47;;;-8.86;80.91
9225;BME280;4647;48.072;11.616;2023-02-08T06:21:28;96940.31;;;-8.79;80.88
9225;BME280;4647;48.072;11.616;2023-02-08T06:23:56;96933.88;;;-8.72;80.65
9225;BME280;4647;48.072;11.616;2023-02-08T06:26:28;96925.69;;;-8.75;80.45
9225;BME280;4647;48.072;11.616;2023-02-08T06:28:57;96933.72;;;-8.82;80.57
9225;BME280;4647;48.072;11.616;2023-02-08T06:31:26;96931.31;;;-8.88;80.91
9225;BME280;4647;48.072;11.616;2023-02-08T06:33:54;96936.34;;;-8.82;80.96
9225;BME280;4647;48.072;11.616;2023-02-08T06:36:23;96933.69;;;-8.87;81.12
9225;BME280;4647;48.072;11.616;2023-02-08T06:38:52;96941.31;;;-8.85;80.69
9225;BME280;4647;48.072;11.616;2023-02-08T06:41:20;96936.44;;;-8.99;81.48
9225;BME280;4647;48.072;11.616;2023-02-08T06:43:51;96929.81;;;-9.01;81.50
9225;BME280;4647;48.072;11.616;2023-02-08T06:46:20;96948.09;;;-8.89;81.58
9225;BME280;4647;48.072;11.616;2023-02-08T06:48:48;96950.03;;;-8.80;81.37
9225;BME280;4647;48.072;11.616;2023-02-08T06:51:16;96947.09;;;-8.83;81.75
9225;BME280;4647;48.072;11.616;2023-02-08T06:53:45;96945.88;;;-8.76;81.66
9225;BME280;4647;48.072;11.616;2023-02-08T06:56:13;96959.72;;;-8.58;81.16
9225;BME280;4647;48.072;11.616;2023-02-08T06:58:42;96958.28;;;-8.49;80.79
9225;BME280;4647;48.072;11.616;2023-02-08T07:01:14;96959.13;;;-8.44;81.03
9225;BME280;4647;48.072;11.616;2023-02-08T07:03:42;96956.28;;;-8.32;80.59
9225;BME280;4647;48.072;11.616;2023-02-08T07:06:12;96952.16;;;-8.28;80.59
9225;BME280;4647;48.072;11.616;2023-02-08T07:08:41;96951.66;;;-8.25;80.52
9225;BME280;4647;48.072;11.616;2023-02-08T07:11:11;96951.69;;;-8.20;80.20
9225;BME280;4647;48.072;11.616;2023-02-08T07:13:40;96961.75;;;-8.12;80.09
9225;BME280;4647;48.072;11.616;2023-02-08T07:16:09;96946.66;;;-7.94;79.85
9225;BME280;4647;48.072;11.616;2023-02-08T07:18:40;96955.59;;;-7.95;80.11
9225;BME280;4647;48.072;11.616;2023-02-08T07:21:08;96956.75;;;-7.81;79.82
9225;BME280;4647;48.072;11.616;2023-02-08T07:23:37;96965.19;;;-7.79;79.77
9225;BME280;4647;48.072;11.616;2023-02-08T07:26:08;96965.31;;;-7.64;79.83
9225;BME280;4647;48.072;11.616;2023-02-08T07:28:38;96961.72;;;-7.53;79.65
9225;BME280;4647;48.072;11.616;2023-02-08T07:31:08;96958.91;;;-7.36;79.02
9225;BME280;4647;48.072;11.616;2023-02-08T07:33:40;96972.94;;;-7.25;78.32
9225;BME280;4647;48.072;11.616;2023-02-08T07:36:09;96963.25;;;-7.15;78.28
9225;BME280;4647;48.072;11.616;2023-02-08T07:38:38;96965.69;;;-7.03;77.58
9225;BME280;4647;48.072;11.616;2023-02-08T07:41:08;96960.69;;;-6.99;77.56
9225;BME280;4647;48.072;11.616;2023-02-08T07:43:38;96968.69;;;-6.84;77.30
9225;BME280;4647;48.072;11.616;2023-02-08T07:46:08;96959.50;;;-6.76;76.96
9225;BME280;4647;48.072;11.616;2023-02-08T07:48:36;96958.19;;;-6.64;76.78
9225;BME280;4647;48.072;11.616;2023-02-08T07:51:08;96958.50;;;-6.55;76.84
9225;BME280;4647;48.072;11.616;2023-02-08T07:53:37;96957.75;;;-6.45;76.13
9225;BME280;4647;48.072;11.616;2023-02-08T07:56:06;96963.28;;;-6.42;76.03
9225;BME280;4647;48.072;11.616;2023-02-08T07:58:35;96959.09;;;-6.28;76.18
9225;BME280;4647;48.072;11.616;2023-02-08T08:01:03;96960.69;;;-6.22;75.38
9225;BME280;4647;48.072;11.616;2023-02-08T08:03:32;96966.28;;;-6.13;75.23
9225;BME280;4647;48.072;11.616;2023-02-08T08:06:00;96963.38;;;-6.11;74.89
9225;BME280;4647;48.072;11.616;2023-02-08T08:08:31;96961.78;;;-6.02;74.37
9225;BME280;4647;48.072;11.616;2023-02-08T08:11:00;96955.72;;;-5.93;74.21
9225;BME280;4647;48.072;11.616;2023-02-08T08:13:28;96956.50;;;-5.92;74.13
9225;BME280;4647;48.072;11.616;2023-02-08T08:15:57;96961.25;;;-5.84;73.31
9225;BME280;4647;48.072;11.616;2023-02-08T08:18:25;96955.44;;;-5.86;73.39
9225;BME280;4647;48.072;11.616;2023-02-08T08:20:54;96954.38;;;-5.75;73.63
9225;BME280;4647;48.072;11.616;2023-02-08T08:23:22;96957.00;;;-5.70;73.05
9225;BME280;4647;48.072;11.616;2023-02-08T08:25:55;96964.94;;;-5.54;72.92
9225;BME280;4647;48.072;11.616;2023-02-08T08:28:24;96952.00;;;-5.56;72.03
9225;BME280;4647;48.072;11.616;2023-02-08T08:30:53;96968.13;;;-5.42;72.30
9225;BME280;4647;48.072;11.616;2023-02-08T08:33:22;96959.34;;;-5.22;72.42
9225;BME280;4647;48.072;11.616;2023-02-08T08:35:50;96972.56;;;-5.12;71.97
9225;BME280;4647;48.072;11.616;2023-02-08T08:38:19;96968.84;;;-5.21;71.50
9225;BME280;4647;48.072;11.616;2023-02-08T08:40:48;96972.00;;;-5.09;71.59
9225;BME280;4647;48.072;11.616;2023-02-08T08:43:19;96963.00;;;-5.03;70.94
9225;BME280;4647;48.072;11.616;2023-02-08T08:45:47;96977.00;;;-5.03;70.66
9225;BME280;4647;48.072;11.616;2023-02-08T08:48:16;96965.88;;;-4.89;70.51
9225;BME280;4647;48.072;11.616;2023-02-08T08:50:44;96965.59;;;-4.83;70.22
9225;BME280;4647;48.072;11.616;2023-02-08T08:53:13;96967.69;;;-4.70;70.70
9225;BME280;4647;48.072;11.616;2023-02-08T08:55:41;96965.81;;;-4.64;69.96
9225;BME280;4647;48.072;11.616;2023-02-08T08:58:10;96958.94;;;-4.65;69.70
9225;BME280;4647;48.072;11.616;2023-02-08T09:00:41;96958.59;;;-4.53;69.65
9225;BME280;4647;48.072;11.616;2023-02-08T09:03:09;96959.91;;;-4.46;69.28
9225;BME280;4647;48.072;11.616;2023-02-08T09:05:38;96959.63;;;-4.44;68.57
9225;BME280;4647;48.072;11.616;2023-02-08T09:08:06;96951.91;;;-4.36;68.16
9225;BME280;4647;48.072;11.616;2023-02-08T09:10:35;96936.91;;;-4.50;68.93
9225;BME280;4647;48.072;11.616;2023-02-08T09:13:03;96955.31;;;-4.25;68.38
9225;BME280;4647;48.072;11.616;2023-02-08T09:15:31;96956.53;;;-4.12;67.66
9225;BME280;4647;48.072;11.616;2023-02-08T09:18:03;96957.84;;;-4.10;67.29
9225;BME280;4647;48.072;11.616;2023-02-08T09:20:31;96959.09;;;-3.97;67.19
9225;BME280;4647;48.072;11.616;2023-02-08T09:22:59;96959.06;;;-3.92;67.73
9225;BME280;4647;48.072;11.616;2023-02-08T09:25:28;96960.59;;;-3.86;66.52
9225;BME280;4647;48.072;11.616;2023-02-08T09:27:57;96961.59;;;-3.77;66.35
9225;BME280;4647;48.072;11.616;2023-02-08T09:30:26;96974.75;;;-3.66;66.20
9225;BME280;4647;48.072;11.616;2023-02-08T09:32:54;96967.50;;;-3.56;66.20
9225;BME280;4647;48.072;11.616;2023-02-08T09:35:25;96972.31;;;-3.58;65.09
9225;BME280;4647;48.072;11.616;2023-02-08T09:37:54;96967.69;;;-3.42;65.35
9225;BME280;4647;48.072;11.616;2023-02-08T09:40:25;96972.56;;;-3.54;63.89
9225;BME280;4647;48.072;11.616;2023-02-08T09:43:01;96968.50;;;-3.47;64.74
9225;BME280;4647;48.072;11.616;2023-02-08T09:45:41;96974.56;;;-3.41;64.91
9225;BME280;4647;48.072;11.616;2023-02-08T09:48:19;96973.75;;;-3.42;65.91
9225;BME280;4647;48.072;11.616;2023-02-08T09:50:55;96981.91;;;-3.33;66.11
9225;BME280;4647;48.072;11.616;2023-02-08T09:53:29;96975.63;;;-3.42;65.58
9225;BME280;4647;48.072;11.616;2023-02-08T09:56:02;96975.41;;;-3.46;65.55
9225;BME280;4647;48.072;11.616;2023-02-08T09:58:35;96973.06;;;-3.52;65.98
9225;BME280;4647;48.072;11.616;2023-02-08T10:01:07;96988.19;;;-3.24;66.38
9225;BME280;4647;48.072;11.616;2023-02-08T10:03:41;96981.81;;;-3.23;66.01
9225;BME280;4647;48.072;11.616;2023-02-08T10:06:15;96965.81;;;-3.13;66.16
9225;BME280;4647;48.072;11.616;2023-02-08T10:08:45;96981.41;;;-3.06;66.17
9225;BME280;4647;48.072;11.616;2023-02-08T10:11:25;96970.53;;;-3.10;66.82
9225;BME280;4647;48.072;11.616;2023-02-08T10:14:16;96969.53;;;-3.14;66.43
9225;BME280;4647;48.072;11.616;2023-02-08T10:16:58;96971.09;;;-3.07;66.64
9225;BME280;4647;48.072;11.616;2023-02-08T10:19:45;96961.03;;;-2.87;66.02
9225;BME280;4647;48.072;11.616;2023-02-08T10:22:27;96959.06;;;-2.76;65.45
9225;BME280;4647;48.072;11.616;2023-02-08T10:25:10;96960.91;;;-2.53;65.24
9225;BME280;4647;48.072;11.616;2023-02-08T10:27:48;96928.69;;;-2.65;64.64
9225;BME280;4647;48.072;11.616;2023-02-08T10:30:29;96961.50;;;-2.56;64.36
9225;BME280;4647;48.072;11.616;2023-02-08T10:33:06;96949.47;;;-2.29;64.17
9225;BME280;4647;48.072;11.616;2023-02-08T10:35:43;96945.44;;;-2.45;64.43
9225;BME280;4647;48.072;11.616;2023-02-08T10:38:26;96951.56;;;-2.26;63.51
9225;BME280;4647;48.072;11.616;2023-02-08T10:40:57;96948.22;;;-2.37;63.85
9225;BME280;4647;48.072;11.616;2023-02-08T10:43:34;96941.22;;;-2.28;64.23
9225;BME280;4647;48.072;11.616;2023-02-08T10:46:10;96945.53;;;-2.32;63.98
9225;BME280;4647;48.072;11.616;2023-02-08T10:48:52;96940.00;;;-2.35;63.48
9225;BME280;4647;48.072;11.616;2023-02-08T10:51:27;96938.78;;;-2.24;63.20
9225;BME280;4647;48.072;11.616;2023-02-08T10:53:58;96927.75;;;-2.31;63.36
9225;BME280;4647;48.072;11.616;2023-02-08T10:56:45;96930.25;;;-2.21;63.50
9225;BME280;4647;48.072;11.616;2023-02-08T10:59:17;96926.09;;;-2.27;63.00
9225;BME280;4647;48.072;11.616;2023-02-08T11:01:47;96926.16;;;-2.13;63.06
9225;BME280;4647;48.072;11.616;2023-02-08T11:04:16;96918.47;;;-2.15;63.24
9225;BME280;4647;48.072;11.616;2023-02-08T11:06:46;96914.25;;;-2.16;62.73
9225;BME280;4647;48.072;11.616;2023-02-08T11:09:24;96915.81;;;-2.15;62.83
9225;BME280;4647;48.072;11.616;2023-02-08T11:11:53;96922.06;;;-2.06;62.97
9225;BME280;4647;48.072;11.616;2023-02-08T11:14:24;96910.78;;;-1.98;62.43
9225;BME280;4647;48.072;11.616;2023-02-08T11:16:57;96913.88;;;-1.91;62.59
9225;BME280;4647;48.072;11.616;2023-02-08T11:19:32;96915.13;;;-1.69;62.93
9225;BME280;4647;48.072;11.616;2023-02-08T11:22:03;96907.75;;;-1.72;62.60
9225;BME280;4647;48.072;11.616;2023-02-08T11:24:38;96907.34;;;-1.66;61.92
9225;BME280;4647;48.072;11.616;2023-02-08T11:27:17;96907.66;;;-1.67;62.54
9225;BME280;4647;48.072;11.616;2023-02-08T11:30:16;96898.78;;;-1.76;61.87
9225;BME280;4647;48.072;11.616;2023-02-08T11:32:47;96897.00;;;-1.81;62.09
9225;BME280;4647;48.072;11.616;2023-02-08T11:35:20;96897.25;;;-1.64;61.97
9225;BME280;4647;48.072;11.616;2023-02-08T11:37:50;96901.53;;;-1.68;62.46
9225;BME280;4647;48.072;11.616;2023-02-08T11:40:25;96907.88;;;-1.64;62.51
9225;BME280;4647;48.072;11.616;2023-02-08T11:42:55;96895.25;;;-1.72;61.69
9225;BME280;4647;48.072;11.616;2023-02-08T11:45:28;96888.81;;;-1.52;62.38
9225;BME280;4647;48.072;11.616;2023-02-08T11:47:58;96892.94;;;-1.46;61.98
9225;BME280;4647;48.072;11.616;2023-02-08T11:50:30;96892.88;;;-1.41;62.23
9225;BME280;4647;48.072;11.616;2023-02-08T11:53:01;96895.63;;;-1.18;61.97
9225;BME280;4647;48.072;11.616;2023-02-08T11:55:34;96883.50;;;-1.52;61.56
9225;BME280;4647;48.072;11.616;2023-02-08T11:58:05;96885.06;;;-1.51;61.80
9225;BME280;4647;48.072;11.616;2023-02-08T12:00:57;96872.84;;;-1.52;61.79
9225;BME280;4647;48.072;11.616;2023-02-08T12:03:29;96863.72;;;-1.46;62.11
9225;BME280;4647;48.072;11.616;2023-02-08T12:06:10;96832.69;;;-1.50;61.76
9225;BME280;4647;48.072;11.616;2023-02-08T12:08:49;96861.59;;;-1.16;61.29
9225;BME280;4647;48.072;11.616;2023-02-08T12:11:28;96866.00;;;-1.26;62.01
9225;BME280;4647;48.072;11.616;2023-02-08T12:14:20;96860.69;;;-1.12;60.98
9225;BME280;4647;48.072;11.616;2023-02-08T12:17:07;96852.44;;;-1.10;60.15
9225;BME280;4647;48.072;11.616;2023-02-08T12:22:40;96851.91;;;-1.26;61.15
9225;BME280;4647;48.072;11.616;2023-02-08T12:25:20;96845.13;;;-1.18;61.10
9225;BME280;4647;48.072;11.616;2023-02-08T12:28:00;96846.91;;;-1.41;61.42
9225;BME280;4647;48.072;11.616;2023-02-08T12:30:33;96833.38;;;-1.45;61.47
9225;BME280;4647;48.072;11.616;2023-02-08T12:33:31;96825.03;;;-1.52;61.11
9225;BME280;4647;48.072;11.616;2023-02-08T12:36:21;96812.13;;;-1.45;61.11
9225;BME280;4647;48.072;11.616;2023-02-08T12:39:05;96823.66;;;-1.49;61.67
9225;BME280;4647;48.072;11.616;2023-02-08T12:42:08;96821.66;;;-1.44;62.33
9225;BME280;4647;48.072;11.616;2023-02-08T12:44:55;96802.22;;;-1.39;61.93
9225;BME280;4647;48.072;11.616;2023-02-08T12:47:38;96800.81;;;-1.23;61.25
9225;BME280;4647;48.072;11.616;2023-02-08T12:50:17;96801.81;;;-1.33;59.86
9225;BME280;4647;48.072;11.616;2023-02-08T12:52:55;96797.09;;;-1.36;60.73
9225;BME280;4647;48.072;11.616;2023-02-08T12:55:28;96798.56;;;-1.30;59.93
9225;BME280;4647;48.072;11.616;2023-02-08T12:58:01;96804.56;;;-1.24;60.41
9225;BME280;4647;48.072;11.616;2023-02-08T13:00:39;96786.25;;;-1.26;61.13
9225;BME280;4647;48.072;11.616;2023-02-08T13:03:25;96796.28;;;-1.09;61.45
9225;BME280;4647;48.072;11.616;2023-02-08T13:05:57;96779.34;;;-1.13;60.74
9225;BME280;4647;48.072;11.616;2023-02-08T13:08:29;96779.66;;;-1.14;61.16
9225;BME280;4647;48.072;11.616;2023-02-08T13:11:02;96777.25;;;-1.02;60.92
9225;BME280;4647;48.072;11.616;2023-02-08T13:13:34;96776.16;;;-0.87;60.18
9225;BME280;4647;48.072;11.616;2023-02-08T13:16:13;96760.75;;;-0.77;59.14
9225;BME280;4647;48.072;11.616;2023-02-08T13:18:47;96789.63;;;-0.84;59.98
9225;BME280;4647;48.072;11.616;2023-02-08T13:21:23;96772.91;;;-0.98;59.97
9225;BME280;4647;48.072;11.616;2023-02-08T13:23:53;96768.31;;;-1.06;59.49
9225;BME280;4647;48.072;11.616;2023-02-08T13:26:23;96782.94;;;-0.95;59.66
9225;BME280;4647;48.072;11.616;2023-02-08T13:28:54;96763.72;;;-0.78;58.98
9225;BME280;4647;48.072;11.616;2023-02-08T13:31:28;96773.19;;;-0.86;58.48
9225;BME280;4647;48.072;11.616;2023-02-08T13:34:00;96758.19;;;-0.82;58.50
9225;BME280;4647;48.072;11.616;2023-02-08T13:36:34;96761.75;;;-0.86;58.54
9225;BME280;4647;48.072;11.616;2023-02-08T13:39:05;96755.69;;;-1.01;59.01
9225;BME280;4647;48.072;11.616;2023-02-08T13:41:35;96747.13;;;-1.11;59.27